sensor_id;sensor_type;location;lat;lon;timestamp;P1;durP1;ratioP1;P2;durP2;ratioP2
64903;SDS011;51401;48.882;12.598;2023-02-28T00:00:16;3.42;;;2.75;;
64903;SDS011;51401;48.882;12.598;2023-02-28T00:02:43;4.18;;;2.75;;
64903;SDS011;51401;48.882;12.598;2023-02-28T00:05:09;3.63;;;2.63;;
64903;SDS011;51401;48.882;12.598;2023-02-28T00:07:36;3.40;;;2.85;;
64903;SDS011;51401;48.882;12.598;2023-02-28T00:10:01;5.38;;;2.67;;
64903;SDS011;51401;48.882;12.598;2023-02-28T00:12:27;3.80;;;2.63;;
64903;SDS011;51401;48.882;12.598;2023-02-28T00:14:53;6.40;;;3.17;;
64903;SDS011;51401;48.882;12.598;2023-02-28T00:17:18;4.18;;;2.88;;
64903;SDS011;51401;48.882;12.598;2023-02-28T00:19:48;3.83;;;2.83;;
64903;SDS011;51401;48.882;12.598;2023-02-28T00:22:15;4.40;;;3.08;;
64903;SDS011;51401;48.882;12.598;2023-02-28T00:24:44;4.75;;;2.70;;
64903;SDS011;51401;48.882;12.598;2023-02-28T00:27:10;2.97;;;2.67;;
64903;SDS011;51401;48.882;12.598;2023-02-28T00:29:35;4.78;;;2.90;;
64903;SDS011;51401;48.882;12.598;2023-02-28T00:32:01;5.90;;;3.47;;
64903;SDS011;51401;48.882;12.598;2023-02-28T00:34:26;4.97;;;3.10;;
64903;SDS011;51401;48.882;12.598;2023-02-28T00:36:52;4.05;;;3.40;;
64903;SDS011;51401;48.882;12.598;2023-02-28T00:39:17;6.43;;;3.35;;
64903;SDS011;51401;48.882;12.598;2023-02-28T00:41:43;4.80;;;3.20;;
64903;SDS011;51401;48.882;12.598;2023-02-28T00:44:08;6.65;;;2.95;;
64903;SDS011;51401;48.882;12.598;2023-02-28T00:46:34;4.22;;;2.80;;
64903;SDS011;51401;48.882;12.598;2023-02-28T00:48:59;5.60;;;3.10;;
64903;SDS011;51401;48.882;12.598;2023-02-28T00:51:24;4.28;;;2.90;;
64903;SDS011;51401;48.882;12.598;2023-02-28T00:53:50;4.28;;;2.88;;
64903;SDS011;51401;48.882;12.598;2023-02-28T00:56:15;7.35;;;3.33;;
64903;SDS011;51401;48.882;12.598;2023-02-28T00:58:40;4.25;;;3.08;;
64903;SDS011;51401;48.882;12.598;2023-02-28T01:01:06;4.35;;;3.10;;
64903;SDS011;51401;48.882;12.598;2023-02-28T01:03:32;5.10;;;2.70;;
64903;SDS011;51401;48.882;12.598;2023-02-28T01:05:57;6.05;;;3.28;;
64903;SDS011;51401;48.882;12.598;2023-02-28T01:08:23;5.22;;;2.72;;
64903;SDS011;51401;48.882;12.598;2023-02-28T01:10:48;5.00;;;3.15;;
64903;SDS011;51401;48.882;12.598;2023-02-28T01:13:14;4.72;;;2.75;;
64903;SDS011;51401;48.882;12.598;2023-02-28T01:15:40;4.03;;;2.65;;
64903;SDS011;51401;48.882;12.598;2023-02-28T01:18:08;3.05;;;2.72;;
64903;SDS011;51401;48.882;12.598;2023-02-28T01:20:33;6.22;;;3.47;;
64903;SDS011;51401;48.882;12.598;2023-02-28T01:23:01;5.60;;;2.90;;
64903;SDS011;51401;48.882;12.598;2023-02-28T01:25:27;3.45;;;2.40;;
64903;SDS011;51401;48.882;12.598;2023-02-28T01:27:52;3.88;;;3.13;;
64903;SDS011;51401;48.882;12.598;2023-02-28T01:30:17;4.03;;;2.92;;
64903;SDS011;51401;48.882;12.598;2023-02-28T01:32:43;4.28;;;3.20;;
64903;SDS011;51401;48.882;12.598;2023-02-28T01:35:08;5.03;;;3.38;;
64903;SDS011;51401;48.882;12.598;2023-02-28T01:37:33;5.70;;;3.13;;
64903;SDS011;51401;48.882;12.598;2023-02-28T01:39:58;3.20;;;2.65;;
64903;SDS011;51401;48.882;12.598;2023-02-28T01:42:24;5.40;;;3.30;;
64903;SDS011;51401;48.882;12.598;2023-02-28T01:47:28;5.03;;;2.95;;
64903;SDS011;51401;48.882;12.598;2023-02-28T01:49:57;4.72;;;3.13;;
64903;SDS011;51401;48.882;12.598;2023-02-28T01:52:23;5.82;;;3.53;;
64903;SDS011;51401;48.882;12.598;2023-02-28T01:54:51;4.32;;;3.28;;
64903;SDS011;51401;48.882;12.598;2023-02-28T01:57:19;6.18;;;3.65;;
64903;SDS011;51401;48.882;12.598;2023-02-28T01:59:56;4.18;;;3.70;;
64903;SDS011;51401;48.882;12.598;2023-02-28T02:02:24;5.97;;;3.67;;
64903;SDS011;51401;48.882;12.598;2023-02-28T02:07:28;5.32;;;3.35;;
64903;SDS011;51401;48.882;12.598;2023-02-28T02:10:04;6.95;;;4.18;;
64903;SDS011;51401;48.882;12.598;2023-02-28T02:15:25;5.50;;;3.47;;
64903;SDS011;51401;48.882;12.598;2023-02-28T02:17:57;6.45;;;4.30;;
64903;SDS011;51401;48.882;12.598;2023-02-28T02:23:13;7.22;;;3.95;;
64903;SDS011;51401;48.882;12.598;2023-02-28T02:25:56;7.00;;;3.78;;
64903;SDS011;51401;48.882;12.598;2023-02-28T02:31:22;6.03;;;4.15;;
64903;SDS011;51401;48.882;12.598;2023-02-28T02:37:14;6.40;;;3.65;;
64903;SDS011;51401;48.882;12.598;2023-02-28T02:42:27;4.22;;;3.50;;
64903;SDS011;51401;48.882;12.598;2023-02-28T02:45:00;7.00;;;3.70;;
64903;SDS011;51401;48.882;12.598;2023-02-28T02:47:30;6.15;;;4.72;;
64903;SDS011;51401;48.882;12.598;2023-02-28T02:49:57;8.15;;;4.07;;
64903;SDS011;51401;48.882;12.598;2023-02-28T02:52:31;5.30;;;3.78;;
64903;SDS011;51401;48.882;12.598;2023-02-28T02:55:02;8.90;;;4.38;;
64903;SDS011;51401;48.882;12.598;2023-02-28T02:57:34;6.25;;;4.32;;
64903;SDS011;51401;48.882;12.598;2023-02-28T03:00:05;6.13;;;4.07;;
64903;SDS011;51401;48.882;12.598;2023-02-28T03:02:35;4.70;;;3.47;;
64903;SDS011;51401;48.882;12.598;2023-02-28T03:05:04;7.45;;;4.50;;
64903;SDS011;51401;48.882;12.598;2023-02-28T03:07:40;6.60;;;3.83;;
64903;SDS011;51401;48.882;12.598;2023-02-28T03:10:25;6.00;;;4.00;;
64903;SDS011;51401;48.882;12.598;2023-02-28T03:13:11;8.20;;;4.55;;
64903;SDS011;51401;48.882;12.598;2023-02-28T03:21:04;6.60;;;4.40;;
64903;SDS011;51401;48.882;12.598;2023-02-28T03:27:07;6.32;;;3.80;;
64903;SDS011;51401;48.882;12.598;2023-02-28T03:29:39;7.05;;;3.63;;
64903;SDS011;51401;48.882;12.598;2023-02-28T03:32:23;8.45;;;5.13;;
64903;SDS011;51401;48.882;12.598;2023-02-28T03:35:10;7.50;;;4.47;;
64903;SDS011;51401;48.882;12.598;2023-02-28T03:37:47;6.85;;;4.40;;
64903;SDS011;51401;48.882;12.598;2023-02-28T03:40:19;8.45;;;4.50;;
64903;SDS011;51401;48.882;12.598;2023-02-28T03:42:48;6.03;;;4.13;;
64903;SDS011;51401;48.882;12.598;2023-02-28T03:45:22;5.07;;;4.03;;
64903;SDS011;51401;48.882;12.598;2023-02-28T03:47:52;7.47;;;4.70;;
64903;SDS011;51401;48.882;12.598;2023-02-28T03:50:24;6.28;;;4.15;;
64903;SDS011;51401;48.882;12.598;2023-02-28T03:53:00;7.53;;;4.80;;
64903;SDS011;51401;48.882;12.598;2023-02-28T03:55:30;7.85;;;4.78;;
64903;SDS011;51401;48.882;12.598;2023-02-28T03:58:07;7.32;;;4.50;;
64903;SDS011;51401;48.882;12.598;2023-02-28T04:00:56;8.45;;;5.38;;
64903;SDS011;51401;48.882;12.598;2023-02-28T04:03:32;7.05;;;4.88;;
64903;SDS011;51401;48.882;12.598;2023-02-28T04:05:57;6.65;;;3.90;;
64903;SDS011;51401;48.882;12.598;2023-02-28T04:08:23;7.28;;;4.78;;
64903;SDS011;51401;48.882;12.598;2023-02-28T04:10:55;7.97;;;4.50;;
64903;SDS011;51401;48.882;12.598;2023-02-28T04:13:25;7.68;;;4.88;;
64903;SDS011;51401;48.882;12.598;2023-02-28T04:15:50;8.65;;;5.05;;
64903;SDS011;51401;48.882;12.598;2023-02-28T04:18:16;7.40;;;5.18;;
64903;SDS011;51401;48.882;12.598;2023-02-28T04:20:41;7.47;;;5.00;;
64903;SDS011;51401;48.882;12.598;2023-02-28T04:23:06;6.68;;;4.43;;
64903;SDS011;51401;48.882;12.598;2023-02-28T04:25:31;9.02;;;4.90;;
64903;SDS011;51401;48.882;12.598;2023-02-28T04:27:57;8.82;;;5.32;;
64903;SDS011;51401;48.882;12.598;2023-02-28T04:30:22;6.53;;;4.53;;
64903;SDS011;51401;48.882;12.598;2023-02-28T04:32:47;8.35;;;4.80;;
64903;SDS011;51401;48.882;12.598;2023-02-28T04:35:13;7.25;;;4.55;;
64903;SDS011;51401;48.882;12.598;2023-02-28T04:37:38;6.85;;;4.50;;
64903;SDS011;51401;48.882;12.598;2023-02-28T04:40:03;9.90;;;5.07;;
64903;SDS011;51401;48.882;12.598;2023-02-28T04:42:29;6.72;;;4.63;;
64903;SDS011;51401;48.882;12.598;2023-02-28T04:45:00;6.53;;;4.68;;
64903;SDS011;51401;48.882;12.598;2023-02-28T04:47:29;8.50;;;5.18;;
64903;SDS011;51401;48.882;12.598;2023-02-28T04:49:54;8.40;;;5.47;;
64903;SDS011;51401;48.882;12.598;2023-02-28T04:52:20;9.15;;;5.13;;
64903;SDS011;51401;48.882;12.598;2023-02-28T04:54:45;10.05;;;5.43;;
64903;SDS011;51401;48.882;12.598;2023-02-28T04:57:10;8.88;;;4.88;;
64903;SDS011;51401;48.882;12.598;2023-02-28T04:59:39;7.32;;;5.75;;
64903;SDS011;51401;48.882;12.598;2023-02-28T05:02:04;8.02;;;5.20;;
64903;SDS011;51401;48.882;12.598;2023-02-28T05:04:32;8.50;;;5.60;;
64903;SDS011;51401;48.882;12.598;2023-02-28T05:06:59;10.23;;;5.50;;
64903;SDS011;51401;48.882;12.598;2023-02-28T05:09:25;9.48;;;6.32;;
64903;SDS011;51401;48.882;12.598;2023-02-28T05:11:50;10.00;;;6.07;;
64903;SDS011;51401;48.882;12.598;2023-02-28T05:14:15;7.95;;;5.30;;
64903;SDS011;51401;48.882;12.598;2023-02-28T05:16:41;7.85;;;5.32;;
64903;SDS011;51401;48.882;12.598;2023-02-28T05:19:06;10.63;;;5.70;;
64903;SDS011;51401;48.882;12.598;2023-02-28T05:21:32;9.38;;;5.55;;
64903;SDS011;51401;48.882;12.598;2023-02-28T05:24:00;9.40;;;5.18;;
64903;SDS011;51401;48.882;12.598;2023-02-28T05:26:27;6.05;;;3.83;;
64903;SDS011;51401;48.882;12.598;2023-02-28T05:28:53;8.63;;;4.93;;
64903;SDS011;51401;48.882;12.598;2023-02-28T05:31:19;7.75;;;5.53;;
64903;SDS011;51401;48.882;12.598;2023-02-28T05:33:45;7.07;;;5.63;;
64903;SDS011;51401;48.882;12.598;2023-02-28T05:36:10;8.35;;;4.70;;
64903;SDS011;51401;48.882;12.598;2023-02-28T05:38:35;8.93;;;5.90;;
64903;SDS011;51401;48.882;12.598;2023-02-28T05:41:04;10.73;;;5.72;;
64903;SDS011;51401;48.882;12.598;2023-02-28T05:43:30;9.30;;;5.75;;
64903;SDS011;51401;48.882;12.598;2023-02-28T05:45:55;8.00;;;5.57;;
64903;SDS011;51401;48.882;12.598;2023-02-28T05:48:21;8.75;;;5.10;;
64903;SDS011;51401;48.882;12.598;2023-02-28T05:50:46;9.77;;;6.15;;
64903;SDS011;51401;48.882;12.598;2023-02-28T05:53:11;9.98;;;5.93;;
64903;SDS011;51401;48.882;12.598;2023-02-28T05:55:37;9.50;;;6.18;;
64903;SDS011;51401;48.882;12.598;2023-02-28T05:58:02;9.18;;;5.75;;
64903;SDS011;51401;48.882;12.598;2023-02-28T06:00:28;10.75;;;5.93;;
64903;SDS011;51401;48.882;12.598;2023-02-28T06:02:53;11.23;;;5.45;;
64903;SDS011;51401;48.882;12.598;2023-02-28T06:05:21;9.75;;;5.55;;
64903;SDS011;51401;48.882;12.598;2023-02-28T06:07:47;10.43;;;5.50;;
64903;SDS011;51401;48.882;12.598;2023-02-28T06:10:12;7.43;;;5.30;;
64903;SDS011;51401;48.882;12.598;2023-02-28T06:12:39;8.13;;;5.75;;
64903;SDS011;51401;48.882;12.598;2023-02-28T06:15:06;11.38;;;6.47;;
64903;SDS011;51401;48.882;12.598;2023-02-28T06:17:32;11.15;;;6.03;;
64903;SDS011;51401;48.882;12.598;2023-02-28T06:19:57;9.30;;;5.72;;
64903;SDS011;51401;48.882;12.598;2023-02-28T06:22:23;10.00;;;5.50;;
64903;SDS011;51401;48.882;12.598;2023-02-28T06:24:48;9.05;;;5.78;;
64903;SDS011;51401;48.882;12.598;2023-02-28T06:27:13;7.43;;;5.10;;
64903;SDS011;51401;48.882;12.598;2023-02-28T06:29:39;8.55;;;5.20;;
64903;SDS011;51401;48.882;12.598;2023-02-28T06:32:05;11.63;;;6.18;;
64903;SDS011;51401;48.882;12.598;2023-02-28T06:34:30;7.68;;;5.07;;
64903;SDS011;51401;48.882;12.598;2023-02-28T06:36:55;9.95;;;6.22;;
64903;SDS011;51401;48.882;12.598;2023-02-28T06:39:21;7.80;;;5.68;;
64903;SDS011;51401;48.882;12.598;2023-02-28T06:41:46;10.20;;;5.78;;
64903;SDS011;51401;48.882;12.598;2023-02-28T06:44:13;11.10;;;6.03;;
64903;SDS011;51401;48.882;12.598;2023-02-28T06:46:40;8.48;;;5.53;;
64903;SDS011;51401;48.882;12.598;2023-02-28T06:49:07;10.35;;;5.38;;
64903;SDS011;51401;48.882;12.598;2023-02-28T06:51:34;8.85;;;5.38;;
64903;SDS011;51401;48.882;12.598;2023-02-28T06:54:00;13.13;;;6.22;;
64903;SDS011;51401;48.882;12.598;2023-02-28T06:56:25;8.23;;;5.75;;
64903;SDS011;51401;48.882;12.598;2023-02-28T06:58:51;9.15;;;5.55;;
64903;SDS011;51401;48.882;12.598;2023-02-28T07:01:18;8.68;;;5.70;;
64903;SDS011;51401;48.882;12.598;2023-02-28T07:03:44;8.27;;;5.72;;
64903;SDS011;51401;48.882;12.598;2023-02-28T07:06:10;9.43;;;6.03;;
64903;SDS011;51401;48.882;12.598;2023-02-28T07:08:35;9.40;;;5.75;;
64903;SDS011;51401;48.882;12.598;2023-02-28T07:11:01;8.95;;;5.90;;
64903;SDS011;51401;48.882;12.598;2023-02-28T07:13:26;9.52;;;6.15;;
64903;SDS011;51401;48.882;12.598;2023-02-28T07:15:52;8.20;;;5.68;;
64903;SDS011;51401;48.882;12.598;2023-02-28T07:18:19;8.13;;;5.72;;
64903;SDS011;51401;48.882;12.598;2023-02-28T07:20:44;6.40;;;5.03;;
64903;SDS011;51401;48.882;12.598;2023-02-28T07:23:10;9.98;;;7.28;;
64903;SDS011;51401;48.882;12.598;2023-02-28T07:25:35;6.88;;;5.30;;
64903;SDS011;51401;48.882;12.598;2023-02-28T07:28:00;8.48;;;6.05;;
64903;SDS011;51401;48.882;12.598;2023-02-28T07:30:25;9.95;;;6.05;;
64903;SDS011;51401;48.882;12.598;2023-02-28T07:32:51;6.93;;;6.15;;
64903;SDS011;51401;48.882;12.598;2023-02-28T07:35:16;9.57;;;5.82;;
64903;SDS011;51401;48.882;12.598;2023-02-28T07:37:42;8.05;;;5.80;;
64903;SDS011;51401;48.882;12.598;2023-02-28T07:40:07;8.52;;;5.82;;
64903;SDS011;51401;48.882;12.598;2023-02-28T07:42:38;9.75;;;6.78;;
64903;SDS011;51401;48.882;12.598;2023-02-28T07:45:04;10.35;;;6.20;;
64903;SDS011;51401;48.882;12.598;2023-02-28T07:47:30;9.38;;;7.00;;
64903;SDS011;51401;48.882;12.598;2023-02-28T07:49:56;9.15;;;6.93;;
64903;SDS011;51401;48.882;12.598;2023-02-28T07:52:22;8.20;;;5.30;;
64903;SDS011;51401;48.882;12.598;2023-02-28T07:54:48;6.85;;;5.30;;
64903;SDS011;51401;48.882;12.598;2023-02-28T07:57:14;7.93;;;5.95;;
64903;SDS011;51401;48.882;12.598;2023-02-28T07:59:39;9.18;;;5.30;;
64903;SDS011;51401;48.882;12.598;2023-02-28T08:02:05;10.20;;;5.75;;
64903;SDS011;51401;48.882;12.598;2023-02-28T08:04:33;9.60;;;6.22;;
64903;SDS011;51401;48.882;12.598;2023-02-28T08:06:58;8.13;;;6.28;;
64903;SDS011;51401;48.882;12.598;2023-02-28T08:09:24;6.63;;;4.95;;
64903;SDS011;51401;48.882;12.598;2023-02-28T08:11:49;7.63;;;5.55;;
64903;SDS011;51401;48.882;12.598;2023-02-28T08:14:14;6.63;;;4.75;;
64903;SDS011;51401;48.882;12.598;2023-02-28T08:16:40;9.45;;;5.90;;
64903;SDS011;51401;48.882;12.598;2023-02-28T08:19:05;8.82;;;5.28;;
64903;SDS011;51401;48.882;12.598;2023-02-28T08:21:32;12.30;;;6.78;;
64903;SDS011;51401;48.882;12.598;2023-02-28T08:23:57;7.13;;;4.70;;
64903;SDS011;51401;48.882;12.598;2023-02-28T08:26:23;7.87;;;5.17;;
64903;SDS011;51401;48.882;12.598;2023-02-28T08:28:48;7.57;;;5.53;;
64903;SDS011;51401;48.882;12.598;2023-02-28T08:31:15;7.72;;;5.30;;
64903;SDS011;51401;48.882;12.598;2023-02-28T08:33:41;8.65;;;5.45;;
64903;SDS011;51401;48.882;12.598;2023-02-28T08:36:08;6.88;;;4.93;;
64903;SDS011;51401;48.882;12.598;2023-02-28T08:38:34;8.73;;;5.38;;
64903;SDS011;51401;48.882;12.598;2023-02-28T08:41:02;8.45;;;5.80;;
64903;SDS011;51401;48.882;12.598;2023-02-28T08:43:30;9.40;;;4.70;;
64903;SDS011;51401;48.882;12.598;2023-02-28T08:45:56;6.80;;;4.60;;
64903;SDS011;51401;48.882;12.598;2023-02-28T08:48:22;8.23;;;5.18;;
64903;SDS011;51401;48.882;12.598;2023-02-28T08:51:02;6.57;;;4.95;;
64903;SDS011;51401;48.882;12.598;2023-02-28T08:53:30;6.53;;;5.20;;
64903;SDS011;51401;48.882;12.598;2023-02-28T08:55:59;6.63;;;5.43;;
64903;SDS011;51401;48.882;12.598;2023-02-28T08:58:26;8.07;;;4.32;;
64903;SDS011;51401;48.882;12.598;2023-02-28T09:00:52;6.75;;;4.53;;
64903;SDS011;51401;48.882;12.598;2023-02-28T09:03:18;6.35;;;4.35;;
64903;SDS011;51401;48.882;12.598;2023-02-28T09:05:56;8.05;;;5.25;;
64903;SDS011;51401;48.882;12.598;2023-02-28T09:08:24;6.37;;;4.93;;
64903;SDS011;51401;48.882;12.598;2023-02-28T09:10:50;9.32;;;5.55;;
64903;SDS011;51401;48.882;12.598;2023-02-28T09:13:16;7.55;;;5.82;;
64903;SDS011;51401;48.882;12.598;2023-02-28T09:15:41;7.45;;;4.53;;
64903;SDS011;51401;48.882;12.598;2023-02-28T09:18:07;9.15;;;6.85;;
64903;SDS011;51401;48.882;12.598;2023-02-28T09:20:32;8.30;;;5.72;;
64903;SDS011;51401;48.882;12.598;2023-02-28T09:22:57;6.63;;;4.97;;
64903;SDS011;51401;48.882;12.598;2023-02-28T09:25:23;7.28;;;5.80;;
64903;SDS011;51401;48.882;12.598;2023-02-28T09:27:48;6.43;;;4.57;;
64903;SDS011;51401;48.882;12.598;2023-02-28T09:30:13;8.30;;;5.65;;
64903;SDS011;51401;48.882;12.598;2023-02-28T09:32:39;6.32;;;4.97;;
64903;SDS011;51401;48.882;12.598;2023-02-28T09:35:04;7.90;;;4.88;;
64903;SDS011;51401;48.882;12.598;2023-02-28T09:37:30;6.20;;;4.20;;
64903;SDS011;51401;48.882;12.598;2023-02-28T09:39:56;7.07;;;5.15;;
64903;SDS011;51401;48.882;12.598;2023-02-28T09:42:23;5.10;;;4.13;;
64903;SDS011;51401;48.882;12.598;2023-02-28T09:44:53;6.50;;;4.68;;
64903;SDS011;51401;48.882;12.598;2023-02-28T09:47:30;15.00;;;9.00;;
64903;SDS011;51401;48.882;12.598;2023-02-28T09:49:58;6.65;;;4.30;;
64903;SDS011;51401;48.882;12.598;2023-02-28T09:52:37;7.45;;;4.65;;
64903;SDS011;51401;48.882;12.598;2023-02-28T09:57:55;9.55;;;5.57;;
64903;SDS011;51401;48.882;12.598;2023-02-28T10:00:24;8.65;;;5.30;;
64903;SDS011;51401;48.882;12.598;2023-02-28T10:03:24;6.60;;;4.72;;
64903;SDS011;51401;48.882;12.598;2023-02-28T10:05:56;7.18;;;4.28;;
64903;SDS011;51401;48.882;12.598;2023-02-28T10:08:31;7.30;;;5.35;;
64903;SDS011;51401;48.882;12.598;2023-02-28T10:11:06;6.07;;;4.35;;
64903;SDS011;51401;48.882;12.598;2023-02-28T10:13:56;5.82;;;4.13;;
64903;SDS011;51401;48.882;12.598;2023-02-28T10:16:31;6.45;;;4.68;;
64903;SDS011;51401;48.882;12.598;2023-02-28T10:19:11;6.82;;;4.60;;
64903;SDS011;51401;48.882;12.598;2023-02-28T10:21:49;8.07;;;5.03;;
64903;SDS011;51401;48.882;12.598;2023-02-28T10:24:55;6.00;;;3.75;;
64903;SDS011;51401;48.882;12.598;2023-02-28T10:27:22;5.85;;;4.20;;
64903;SDS011;51401;48.882;12.598;2023-02-28T10:29:54;7.85;;;4.57;;
64903;SDS011;51401;48.882;12.598;2023-02-28T10:35:06;5.78;;;4.47;;
64903;SDS011;51401;48.882;12.598;2023-02-28T10:37:42;6.45;;;4.90;;
64903;SDS011;51401;48.882;12.598;2023-02-28T10:43:03;6.57;;;5.40;;
64903;SDS011;51401;48.882;12.598;2023-02-28T10:45:31;7.38;;;4.93;;
64903;SDS011;51401;48.882;12.598;2023-02-28T10:58:42;6.43;;;4.80;;
64903;SDS011;51401;48.882;12.598;2023-02-28T11:01:15;5.57;;;4.35;;
64903;SDS011;51401;48.882;12.598;2023-02-28T11:04:01;6.50;;;4.85;;
64903;SDS011;51401;48.882;12.598;2023-02-28T11:06:31;5.30;;;4.25;;
64903;SDS011;51401;48.882;12.598;2023-02-28T11:08:59;6.05;;;4.28;;
64903;SDS011;51401;48.882;12.598;2023-02-28T11:11:28;6.53;;;4.88;;
64903;SDS011;51401;48.882;12.598;2023-02-28T11:14:05;5.60;;;4.63;;
64903;SDS011;51401;48.882;12.598;2023-02-28T11:16:57;7.32;;;4.45;;
64903;SDS011;51401;48.882;12.598;2023-02-28T11:19:26;5.05;;;3.83;;
64903;SDS011;51401;48.882;12.598;2023-02-28T11:22:00;6.38;;;4.35;;
64903;SDS011;51401;48.882;12.598;2023-02-28T11:24:31;5.72;;;4.10;;
64903;SDS011;51401;48.882;12.598;2023-02-28T11:27:00;6.10;;;4.20;;
64903;SDS011;51401;48.882;12.598;2023-02-28T11:29:32;6.97;;;4.72;;
64903;SDS011;51401;48.882;12.598;2023-02-28T11:32:04;6.45;;;4.93;;
64903;SDS011;51401;48.882;12.598;2023-02-28T11:34:42;4.72;;;4.20;;
64903;SDS011;51401;48.882;12.598;2023-02-28T11:37:12;6.47;;;5.13;;
64903;SDS011;51401;48.882;12.598;2023-02-28T11:39:43;5.28;;;4.18;;
64903;SDS011;51401;48.882;12.598;2023-02-28T12:03:28;9.50;;;4.55;;
64903;SDS011;51401;48.882;12.598;2023-02-28T12:06:12;5.93;;;4.45;;
64903;SDS011;51401;48.882;12.598;2023-02-28T12:11:48;7.50;;;4.35;;
64903;SDS011;51401;48.882;12.598;2023-02-28T12:22:41;6.38;;;5.00;;
64903;SDS011;51401;48.882;12.598;2023-02-28T12:30:35;9.00;;;5.47;;
64903;SDS011;51401;48.882;12.598;2023-02-28T12:33:06;8.20;;;5.10;;
64903;SDS011;51401;48.882;12.598;2023-02-28T12:38:26;5.80;;;4.60;;
64903;SDS011;51401;48.882;12.598;2023-02-28T12:41:00;7.95;;;6.53;;
64903;SDS011;51401;48.882;12.598;2023-02-28T12:43:31;6.75;;;5.05;;
64903;SDS011;51401;48.882;12.598;2023-02-28T12:46:07;8.55;;;5.50;;
64903;SDS011;51401;48.882;12.598;2023-02-28T12:48:55;10.25;;;7.10;;
64903;SDS011;51401;48.882;12.598;2023-02-28T12:51:22;6.53;;;5.07;;
64903;SDS011;51401;48.882;12.598;2023-02-28T12:53:53;7.00;;;5.47;;
64903;SDS011;51401;48.882;12.598;2023-02-28T12:59:18;7.90;;;5.35;;
64903;SDS011;51401;48.882;12.598;2023-02-28T13:07:33;6.88;;;5.65;;
64903;SDS011;51401;48.882;12.598;2023-02-28T13:10:06;8.25;;;5.55;;
64903;SDS011;51401;48.882;12.598;2023-02-28T13:12:33;7.80;;;5.68;;
64903;SDS011;51401;48.882;12.598;2023-02-28T13:15:32;8.00;;;5.68;;
64903;SDS011;51401;48.882;12.598;2023-02-28T13:17:54;10.50;;;6.10;;
64903;SDS011;51401;48.882;12.598;2023-02-28T13:20:25;7.38;;;4.90;;
64903;SDS011;51401;48.882;12.598;2023-02-28T13:22:54;8.60;;;5.38;;
64903;SDS011;51401;48.882;12.598;2023-02-28T13:27:49;15.43;;;9.70;;
64903;SDS011;51401;48.882;12.598;2023-02-28T13:38:40;8.10;;;5.35;;
64903;SDS011;51401;48.882;12.598;2023-02-28T14:11:42;7.82;;;5.30;;
64903;SDS011;51401;48.882;12.598;2023-02-28T14:14:09;9.13;;;5.50;;
64903;SDS011;51401;48.882;12.598;2023-02-28T14:16:55;8.00;;;6.22;;
64903;SDS011;51401;48.882;12.598;2023-02-28T14:19:24;11.52;;;6.22;;
64903;SDS011;51401;48.882;12.598;2023-02-28T14:24:31;7.97;;;5.35;;
64903;SDS011;51401;48.882;12.598;2023-02-28T14:33:02;8.40;;;5.45;;
64903;SDS011;51401;48.882;12.598;2023-02-28T14:38:45;7.32;;;5.78;;
64903;SDS011;51401;48.882;12.598;2023-02-28T14:41:16;8.38;;;6.15;;
64903;SDS011;51401;48.882;12.598;2023-02-28T14:43:51;9.75;;;6.45;;
64903;SDS011;51401;48.882;12.598;2023-02-28T14:46:19;12.27;;;6.28;;
64903;SDS011;51401;48.882;12.598;2023-02-28T14:48:46;9.48;;;6.43;;
64903;SDS011;51401;48.882;12.598;2023-02-28T14:51:17;7.50;;;5.90;;
64903;SDS011;51401;48.882;12.598;2023-02-28T14:53:44;10.85;;;6.35;;
64903;SDS011;51401;48.882;12.598;2023-02-28T14:56:49;7.97;;;6.82;;
64903;SDS011;51401;48.882;12.598;2023-02-28T14:59:27;10.85;;;6.65;;
64903;SDS011;51401;48.882;12.598;2023-02-28T15:04:51;8.85;;;6.07;;
64903;SDS011;51401;48.882;12.598;2023-02-28T15:07:19;10.45;;;6.55;;
64903;SDS011;51401;48.882;12.598;2023-02-28T15:09:44;9.40;;;6.63;;
64903;SDS011;51401;48.882;12.598;2023-02-28T15:12:13;12.43;;;8.63;;
64903;SDS011;51401;48.882;12.598;2023-02-28T15:14:39;10.80;;;7.32;;
64903;SDS011;51401;48.882;12.598;2023-02-28T15:17:08;10.38;;;7.13;;
64903;SDS011;51401;48.882;12.598;2023-02-28T15:19:44;9.48;;;6.75;;
64903;SDS011;51401;48.882;12.598;2023-02-28T15:22:15;10.25;;;7.05;;
64903;SDS011;51401;48.882;12.598;2023-02-28T15:24:48;11.55;;;8.18;;
64903;SDS011;51401;48.882;12.598;2023-02-28T15:27:29;10.35;;;7.30;;
64903;SDS011;51401;48.882;12.598;2023-02-28T15:29:58;11.93;;;7.13;;
64903;SDS011;51401;48.882;12.598;2023-02-28T15:32:32;11.13;;;6.97;;
64903;SDS011;51401;48.882;12.598;2023-02-28T15:34:59;10.02;;;6.38;;
64903;SDS011;51401;48.882;12.598;2023-02-28T15:37:48;11.30;;;6.85;;
64903;SDS011;51401;48.882;12.598;2023-02-28T15:43:06;12.98;;;7.25;;
64903;SDS011;51401;48.882;12.598;2023-02-28T15:48:32;12.40;;;8.07;;
64903;SDS011;51401;48.882;12.598;2023-02-28T15:51:02;13.63;;;7.97;;
64903;SDS011;51401;48.882;12.598;2023-02-28T15:53:35;12.33;;;8.27;;
64903;SDS011;51401;48.882;12.598;2023-02-28T15:56:04;11.77;;;7.18;;
64903;SDS011;51401;48.882;12.598;2023-02-28T15:58:32;10.93;;;6.97;;
64903;SDS011;51401;48.882;12.598;2023-02-28T16:01:45;14.20;;;8.35;;
64903;SDS011;51401;48.882;12.598;2023-02-28T16:03:55;9.90;;;7.15;;
64903;SDS011;51401;48.882;12.598;2023-02-28T16:06:26;10.23;;;6.80;;
64903;SDS011;51401;48.882;12.598;2023-02-28T16:08:58;12.18;;;7.68;;
64903;SDS011;51401;48.882;12.598;2023-02-28T16:11:24;10.77;;;7.50;;
64903;SDS011;51401;48.882;12.598;2023-02-28T16:13:49;14.15;;;7.75;;
64903;SDS011;51401;48.882;12.598;2023-02-28T16:16:25;14.70;;;7.35;;
64903;SDS011;51401;48.882;12.598;2023-02-28T16:18:51;10.75;;;7.63;;
64903;SDS011;51401;48.882;12.598;2023-02-28T16:21:17;11.35;;;7.38;;
64903;SDS011;51401;48.882;12.598;2023-02-28T16:23:43;12.35;;;7.45;;
64903;SDS011;51401;48.882;12.598;2023-02-28T16:26:08;12.25;;;7.80;;
64903;SDS011;51401;48.882;12.598;2023-02-28T16:28:43;11.48;;;7.97;;
64903;SDS011;51401;48.882;12.598;2023-02-28T16:31:09;14.57;;;8.27;;
64903;SDS011;51401;48.882;12.598;2023-02-28T16:33:41;11.82;;;7.88;;
64903;SDS011;51401;48.882;12.598;2023-02-28T16:36:06;14.20;;;8.07;;
64903;SDS011;51401;48.882;12.598;2023-02-28T16:38:37;11.32;;;7.30;;
64903;SDS011;51401;48.882;12.598;2023-02-28T16:41:03;11.95;;;7.97;;
64903;SDS011;51401;48.882;12.598;2023-02-28T16:43:28;11.85;;;7.28;;
64903;SDS011;51401;48.882;12.598;2023-02-28T16:45:54;15.50;;;9.07;;
64903;SDS011;51401;48.882;12.598;2023-02-28T16:48:21;17.02;;;9.98;;
64903;SDS011;51401;48.882;12.598;2023-02-28T16:50:47;13.60;;;8.93;;
64903;SDS011;51401;48.882;12.598;2023-02-28T16:53:12;14.00;;;8.98;;
64903;SDS011;51401;48.882;12.598;2023-02-28T16:55:38;13.45;;;8.20;;
64903;SDS011;51401;48.882;12.598;2023-02-28T16:58:04;13.85;;;8.45;;
64903;SDS011;51401;48.882;12.598;2023-02-28T17:00:30;13.55;;;8.70;;
64903;SDS011;51401;48.882;12.598;2023-02-28T17:02:56;14.82;;;8.32;;
64903;SDS011;51401;48.882;12.598;2023-02-28T17:05:22;14.82;;;8.93;;
64903;SDS011;51401;48.882;12.598;2023-02-28T17:07:48;16.00;;;10.10;;
64903;SDS011;51401;48.882;12.598;2023-02-28T17:10:15;19.65;;;11.10;;
64903;SDS011;51401;48.882;12.598;2023-02-28T17:12:41;16.35;;;9.48;;
64903;SDS011;51401;48.882;12.598;2023-02-28T17:15:06;16.05;;;8.82;;
64903;SDS011;51401;48.882;12.598;2023-02-28T17:17:32;12.38;;;7.57;;
64903;SDS011;51401;48.882;12.598;2023-02-28T17:19:58;13.05;;;8.60;;